createdAt,value
2022-11-16T00:00:51.313Z,44.97
2022-11-16T00:03:24.515Z,38.15
2022-11-16T00:06:00.934Z,41.95
2022-11-16T00:08:35.497Z,42.50
2022-11-16T00:11:10.694Z,44.88
2022-11-16T00:13:45.034Z,44.00
2022-11-16T00:16:21.835Z,42.63
2022-11-16T00:19:00.033Z,42.17
2022-11-16T00:21:33.535Z,42.50
2022-11-16T00:24:07.395Z,43.00
2022-11-16T00:26:40.401Z,41.80
2022-11-16T00:29:18.277Z,43.25
2022-11-16T00:31:54.538Z,42.22
2022-11-16T00:34:28.081Z,40.70
2022-11-16T00:37:00.976Z,40.70
2022-11-16T00:39:34.861Z,41.95
2022-11-16T00:42:07.573Z,40.47
2022-11-16T00:44:40.912Z,39.83
2022-11-16T00:47:16.053Z,40.38
2022-11-16T00:49:49.074Z,38.05
2022-11-16T00:52:21.513Z,38.95
2022-11-16T00:55:35.760Z,42.58
2022-11-16T00:58:08.476Z,34.40
2022-11-16T01:00:41.755Z,39.60
2022-11-16T01:03:17.036Z,34.85
2022-11-16T01:05:50.183Z,36.78
2022-11-16T01:08:22.719Z,38.58
2022-11-16T01:10:55.874Z,40.22
2022-11-16T01:13:25.715Z,37.45
2022-11-16T01:16:00.085Z,38.72
2022-11-16T01:18:35.573Z,38.88
2022-11-16T01:21:10.676Z,39.88
2022-11-16T01:23:43.094Z,39.63
2022-11-16T01:26:16.113Z,40.58
2022-11-16T01:28:48.797Z,39.53
2022-11-16T01:31:21.837Z,39.33
2022-11-16T01:33:58.093Z,37.42
2022-11-16T01:36:31.140Z,40.05
2022-11-16T01:39:03.554Z,40.45
2022-11-16T01:41:36.695Z,40.65
2022-11-16T01:44:11.175Z,39.17
2022-11-16T01:46:44.673Z,35.78
2022-11-16T01:49:23.876Z,38.95
2022-11-16T01:52:00.434Z,38.63
2022-11-16T01:54:34.562Z,37.65
2022-11-16T01:57:09.813Z,37.60
2022-11-16T01:59:42.693Z,37.80
2022-11-16T02:02:16.036Z,37.92
2022-11-16T02:04:52.194Z,36.53
2022-11-16T02:07:58.913Z,38.60
2022-11-16T02:10:47.433Z,40.13
2022-11-16T02:13:37.552Z,38.67
2022-11-16T02:16:23.336Z,38.53
2022-11-16T02:19:05.414Z,38.70
2022-11-16T02:21:47.692Z,37.00
2022-11-16T02:24:46.239Z,36.58
2022-11-16T02:27:48.200Z,37.25
2022-11-16T02:30:26.111Z,37.42
2022-11-16T02:33:04.151Z,35.60
2022-11-16T02:35:41.285Z,32.40
2022-11-16T02:38:17.647Z,35.55
2022-11-16T02:40:53.707Z,35.08
2022-11-16T02:43:29.990Z,36.65
2022-11-16T02:46:10.360Z,34.38
2022-11-16T02:48:47.226Z,36.53
2022-11-16T02:51:20.584Z,36.80
2022-11-16T02:54:05.235Z,37.30
2022-11-16T02:56:47.029Z,35.92
2022-11-16T02:59:19.224Z,34.38
2022-11-16T03:05:32.275Z,33.05
2022-11-16T03:08:11.224Z,32.88
2022-11-16T03:10:57.160Z,36.15
2022-11-16T03:13:34.128Z,36.72
2022-11-16T03:16:11.160Z,40.17
2022-11-16T03:18:44.847Z,37.55
2022-11-16T03:21:26.269Z,37.15
2022-11-16T03:23:57.992Z,38.03
2022-11-16T03:26:35.634Z,39.65
2022-11-16T03:29:15.780Z,40.47
2022-11-16T03:31:52.446Z,40.70
2022-11-16T03:34:30.588Z,38.40
2022-11-16T03:37:06.710Z,38.15
2022-11-16T03:39:42.385Z,38.10
2022-11-16T03:42:17.221Z,41.05
2022-11-16T03:44:51.609Z,38.78
2022-11-16T03:47:22.860Z,41.28
2022-11-16T03:49:54.600Z,39.35
2022-11-16T03:52:28.709Z,42.88
2022-11-16T03:55:00.585Z,41.20
2022-11-16T03:57:31.687Z,43.65
2022-11-16T04:00:03.230Z,44.00
2022-11-16T04:02:34.688Z,45.78
2022-11-16T04:05:18.674Z,48.40
2022-11-16T04:08:05.181Z,46.67
2022-11-16T04:10:49.237Z,39.83
2022-11-16T04:13:40.823Z,47.90
2022-11-16T04:16:26.157Z,46.95
2022-11-16T04:19:09.743Z,50.42
2022-11-16T04:22:04.825Z,50.78
2022-11-16T04:24:42.822Z,50.03
2022-11-16T04:27:31.289Z,49.72
2022-11-16T04:30:04.273Z,52.58
2022-11-16T04:32:49.269Z,45.30
2022-11-16T04:35:32.712Z,48.88
2022-11-16T04:38:04.461Z,49.65
2022-11-16T04:40:38.316Z,48.20
2022-11-16T04:43:10.192Z,49.33
2022-11-16T04:45:53.753Z,47.63
2022-11-16T04:48:25.780Z,46.47
2022-11-16T04:50:57.431Z,46.10
2022-11-16T04:53:29.377Z,48.08
2022-11-16T04:56:03.413Z,47.70
2022-11-16T04:58:35.343Z,46.53
2022-11-16T05:01:06.715Z,48.38
2022-11-16T05:03:38.517Z,49.20
2022-11-16T05:06:10.536Z,47.53
2022-11-16T05:08:42.185Z,45.28
2022-11-16T05:11:16.253Z,47.53
2022-11-16T05:13:47.926Z,49.95
2022-11-16T05:16:19.337Z,45.35
2022-11-16T05:19:11.441Z,43.20
2022-11-16T05:21:40.049Z,47.45
2022-11-16T05:24:24.359Z,45.45
2022-11-16T05:26:58.075Z,46.42
2022-11-16T05:29:30.317Z,48.55
2022-11-16T05:32:01.523Z,49.90
2022-11-16T05:34:34.194Z,46.55
2022-11-16T05:37:05.695Z,52.42
2022-11-16T05:39:37.827Z,43.20
2022-11-16T05:42:12.267Z,49.00
2022-11-16T05:44:44.066Z,50.90
2022-11-16T05:47:15.460Z,49.22
2022-11-16T05:49:47.171Z,47.55
2022-11-16T05:52:18.293Z,49.65
2022-11-16T05:54:50.225Z,49.65
2022-11-16T05:57:24.174Z,47.92
2022-11-16T05:59:55.827Z,47.40
2022-11-16T06:05:25.025Z,51.28
2022-11-16T06:07:56.493Z,49.83
2022-11-16T06:10:27.853Z,50.55
2022-11-16T06:13:04.072Z,50.90
2022-11-16T06:15:35.336Z,51.15
2022-11-16T06:18:07.293Z,50.58
2022-11-16T06:20:40.358Z,48.53
2022-11-16T06:23:11.639Z,48.42
2022-11-16T06:25:43.325Z,51.40
2022-11-16T06:28:17.500Z,50.65
2022-11-16T06:30:48.856Z,46.15
2022-11-16T06:33:21.405Z,51.63
2022-11-16T06:35:52.233Z,47.17
2022-11-16T06:38:24.101Z,45.45
2022-11-16T06:40:57.335Z,49.95
2022-11-16T06:43:31.547Z,50.38
2022-11-16T06:46:02.873Z,50.33
2022-11-16T06:48:35.016Z,50.50
2022-11-16T06:51:06.361Z,50.40
2022-11-16T06:53:38.490Z,52.17
2022-11-16T06:56:10.769Z,49.58
2022-11-16T06:58:45.533Z,52.17
2022-11-16T07:01:17.665Z,47.80
2022-11-16T07:03:49.742Z,49.60
2022-11-16T07:06:21.375Z,50.90
2022-11-16T07:08:53.427Z,47.72
2022-11-16T07:11:24.913Z,48.10
2022-11-16T07:14:01.461Z,49.92
2022-11-16T07:16:35.669Z,50.72
2022-11-16T07:19:08.250Z,51.90
2022-11-16T07:21:41.382Z,52.45
2022-11-16T07:24:14.189Z,50.13
2022-11-16T07:26:45.725Z,48.97
2022-11-16T07:29:21.865Z,49.80
2022-11-16T07:31:53.800Z,48.97
2022-11-16T07:34:25.840Z,49.92
2022-11-16T07:36:57.479Z,52.83
2022-11-16T07:39:44.412Z,49.72
2022-11-16T07:42:17.268Z,50.70
2022-11-16T07:44:53.787Z,50.35
2022-11-16T07:47:26.919Z,50.28
2022-11-16T07:50:00.627Z,48.55
2022-11-16T07:52:34.016Z,51.25
2022-11-16T07:55:08.078Z,48.38
2022-11-16T07:57:41.318Z,47.92
2022-11-16T08:00:18.559Z,46.83
2022-11-16T08:02:51.837Z,49.13
2022-11-16T08:05:25.717Z,50.42
2022-11-16T08:07:58.917Z,50.75
2022-11-16T08:10:34.158Z,50.35
2022-11-16T08:13:07.757Z,50.42
2022-11-16T08:15:46.496Z,50.90
2022-11-16T08:18:21.204Z,45.83
2022-11-16T08:20:53.801Z,46.45
2022-11-16T08:23:26.090Z,49.08
2022-11-16T08:26:02.341Z,49.15
2022-11-16T08:28:36.210Z,48.55
2022-11-16T08:31:15.642Z,48.47
2022-11-16T08:34:03.842Z,45.58
2022-11-16T08:36:36.524Z,48.75
2022-11-16T08:39:10.427Z,45.22
2022-11-16T08:41:44.773Z,40.85
2022-11-16T08:44:22.489Z,41.88
2022-11-16T08:46:57.899Z,40.47
2022-11-16T08:49:34.566Z,43.45
2022-11-16T08:52:10.891Z,41.00
2022-11-16T08:54:43.328Z,35.75
2022-11-16T08:57:17.708Z,38.17
2022-11-16T08:59:49.903Z,40.83
2022-11-16T09:02:25.962Z,39.90
2022-11-16T09:04:58.187Z,37.80
2022-11-16T09:07:31.323Z,39.08
2022-11-16T09:10:03.572Z,31.63
2022-11-16T09:12:36.674Z,38.35
2022-11-16T09:15:12.253Z,35.78
2022-11-16T09:17:55.282Z,36.55
2022-11-16T09:20:31.477Z,34.70
2022-11-16T09:23:03.531Z,35.22
2022-11-16T09:25:35.604Z,31.67
2022-11-16T09:28:09.896Z,34.28
2022-11-16T09:30:41.511Z,35.10
2022-11-16T09:33:16.662Z,28.55
2022-11-16T09:35:49.421Z,31.70
2022-11-16T09:38:40.289Z,30.92
2022-11-16T09:41:38.092Z,28.80
2022-11-16T09:44:25.601Z,27.98
2022-11-16T09:47:03.056Z,26.25
2022-11-16T09:49:44.780Z,21.60
2022-11-16T09:52:29.365Z,21.02
2022-11-16T09:55:15.930Z,21.45
2022-11-16T10:00:45.461Z,19.40
2022-11-16T10:03:19.978Z,16.60
2022-11-16T10:06:06.544Z,20.50
2022-11-16T10:08:48.179Z,19.48
2022-11-16T10:11:51.571Z,20.35
2022-11-16T10:14:39.442Z,19.42
2022-11-16T10:17:24.321Z,21.05
2022-11-16T10:20:00.307Z,20.48
2022-11-16T10:23:04.267Z,20.70
2022-11-16T10:25:46.108Z,21.48
2022-11-16T10:28:48.387Z,21.80
2022-11-16T10:31:30.872Z,19.30
2022-11-16T10:34:06.696Z,20.25
2022-11-16T10:36:43.870Z,18.92
2022-11-16T10:39:21.420Z,19.58
2022-11-16T10:41:54.006Z,22.17
2022-11-16T10:44:36.250Z,22.67
2022-11-16T10:47:15.858Z,21.42
2022-11-16T10:49:59.027Z,22.38
2022-11-16T10:52:34.604Z,22.75
2022-11-16T10:55:19.456Z,20.48
2022-11-16T10:58:03.456Z,24.33
2022-11-16T11:00:49.614Z,23.58
2022-11-16T11:03:36.975Z,24.13
2022-11-16T11:06:14.330Z,22.33
2022-11-16T11:08:45.521Z,25.42
2022-11-16T11:11:38.799Z,23.27
2022-11-16T11:14:14.650Z,23.77
2022-11-16T11:16:46.905Z,23.40
2022-11-16T11:19:24.990Z,25.10
2022-11-16T11:22:01.182Z,24.63
2022-11-16T11:24:48.269Z,23.75
2022-11-16T11:27:31.097Z,23.08
2022-11-16T11:30:04.742Z,24.02
2022-11-16T11:32:48.011Z,25.25
2022-11-16T11:35:28.468Z,25.80
2022-11-16T11:38:08.023Z,23.95
2022-11-16T11:40:45.073Z,26.30
2022-11-16T11:43:27.262Z,24.75
2022-11-16T11:46:07.531Z,25.30
2022-11-16T11:48:49.071Z,22.83
2022-11-16T11:51:28.945Z,25.92
2022-11-16T11:54:02.840Z,23.65
2022-11-16T11:56:38.180Z,22.50
2022-11-16T11:59:21.299Z,25.40
2022-11-16T12:02:19.797Z,25.80
2022-11-16T12:05:35.999Z,27.50
2022-11-16T12:08:25.706Z,28.98
2022-11-16T12:11:06.864Z,25.95
2022-11-16T12:14:00.292Z,28.33
2022-11-16T12:16:48.130Z,27.35
2022-11-16T12:19:42.694Z,28.73
2022-11-16T12:22:32.589Z,28.33
2022-11-16T12:25:21.270Z,27.50
2022-11-16T12:28:17.107Z,28.52
2022-11-16T12:31:03.263Z,26.88
2022-11-16T12:33:47.519Z,25.13
2022-11-16T12:36:43.779Z,23.48
2022-11-16T12:39:28.920Z,26.90
2022-11-16T12:42:40.539Z,25.08
2022-11-16T12:45:39.314Z,26.50
2022-11-16T12:48:31.095Z,27.30
2022-11-16T12:51:18.684Z,24.42
2022-11-16T12:54:17.496Z,25.92
2022-11-16T12:56:57.524Z,27.30
2022-11-16T12:59:44.428Z,26.10
2022-11-16T13:02:31.368Z,25.42
2022-11-16T13:05:13.824Z,25.63
2022-11-16T13:07:52.630Z,26.38
2022-11-16T13:10:30.802Z,27.13
2022-11-16T13:13:34.786Z,23.85
2022-11-16T13:16:08.091Z,26.10
2022-11-16T13:18:46.056Z,25.67
2022-11-16T13:21:32.167Z,24.85
2022-11-16T13:24:25.077Z,25.08
2022-11-16T13:27:06.584Z,24.48
2022-11-16T13:29:47.207Z,25.30
2022-11-16T13:32:26.344Z,23.75
2022-11-16T13:35:01.062Z,23.55
2022-11-16T13:37:47.810Z,24.30
2022-11-16T13:40:37.610Z,24.73
2022-11-16T13:43:33.693Z,22.10
2022-11-16T13:46:54.372Z,23.35
2022-11-16T13:49:34.930Z,23.02
2022-11-16T13:52:23.102Z,23.25
2022-11-16T13:55:02.121Z,21.77
2022-11-16T13:57:39.236Z,21.08
2022-11-16T14:00:15.958Z,20.98
2022-11-16T14:02:49.524Z,21.50
2022-11-16T14:05:42.836Z,20.40
2022-11-16T14:08:48.281Z,19.48
2022-11-16T14:11:36.961Z,19.50
2022-11-16T14:14:17.479Z,19.95
2022-11-16T14:16:53.639Z,20.08
2022-11-16T14:20:00.913Z,21.02
2022-11-16T14:23:02.790Z,19.35
2022-11-16T14:25:47.632Z,20.10
2022-11-16T14:28:47.241Z,20.05
2022-11-16T14:31:28.880Z,20.95
2022-11-16T14:34:04.719Z,20.70
2022-11-16T14:36:43.843Z,20.73
2022-11-16T14:39:37.921Z,21.15
2022-11-16T14:42:20.969Z,19.65
2022-11-16T14:45:03.762Z,20.52
2022-11-16T14:47:41.084Z,20.58
2022-11-16T14:50:23.440Z,19.63
2022-11-16T14:53:01.001Z,20.85
2022-11-16T14:55:34.765Z,22.10
2022-11-16T14:58:12.721Z,21.98
2022-11-16T15:00:56.050Z,21.55
2022-11-16T15:03:37.450Z,22.30
2022-11-16T15:06:28.885Z,21.80
2022-11-16T15:09:05.997Z,21.80
2022-11-16T15:11:55.595Z,20.25
2022-11-16T15:14:33.236Z,17.63
2022-11-16T15:17:07.477Z,21.02
2022-11-16T15:19:44.020Z,18.13
2022-11-16T15:22:21.821Z,19.50
2022-11-16T15:24:59.866Z,18.52
2022-11-16T15:27:49.090Z,17.17
2022-11-16T15:30:25.404Z,17.10
2022-11-16T15:32:59.654Z,17.35
2022-11-16T15:35:37.794Z,18.73
2022-11-16T15:38:19.039Z,18.05
2022-11-16T15:40:55.565Z,16.85
2022-11-16T15:43:33.047Z,17.17
2022-11-16T15:46:08.601Z,15.43
2022-11-16T15:48:42.607Z,18.30
2022-11-16T15:51:22.703Z,16.42
2022-11-16T15:53:56.926Z,16.98
2022-11-16T15:56:36.741Z,16.20
2022-11-16T15:59:17.301Z,14.65
2022-11-16T16:01:50.444Z,17.13
2022-11-16T16:04:24.658Z,18.75
2022-11-16T16:07:02.727Z,18.42
2022-11-16T16:09:38.540Z,16.50
2022-11-16T16:12:29.379Z,16.67
2022-11-16T16:15:24.269Z,15.60
2022-11-16T16:17:58.141Z,14.05
2022-11-16T16:20:33.505Z,12.00
2022-11-16T16:23:16.916Z,12.60
2022-11-16T16:25:50.757Z,13.50
2022-11-16T16:28:23.865Z,14.82
2022-11-16T16:30:57.241Z,14.65
2022-11-16T16:33:30.619Z,14.32
2022-11-16T16:36:07.098Z,15.40
2022-11-16T16:38:42.977Z,15.52
2022-11-16T16:41:24.573Z,15.20
2022-11-16T16:43:57.969Z,16.58
2022-11-16T16:46:31.288Z,15.45
2022-11-16T16:49:04.255Z,13.43
2022-11-16T16:51:37.221Z,14.35
2022-11-16T16:54:16.800Z,11.13
2022-11-16T16:56:50.220Z,14.93
2022-11-16T16:59:23.335Z,14.10
2022-11-16T17:01:56.833Z,14.38
2022-11-16T17:04:30.112Z,14.75
2022-11-16T17:07:03.612Z,14.60
2022-11-16T17:09:39.672Z,13.90
2022-11-16T17:12:13.873Z,14.57
2022-11-16T17:14:52.154Z,14.20
2022-11-16T17:17:26.873Z,12.73
2022-11-16T17:19:59.888Z,15.18
2022-11-16T17:22:34.075Z,15.18
2022-11-16T17:25:10.321Z,15.15
2022-11-16T17:27:43.298Z,15.48
2022-11-16T17:30:17.817Z,16.90
2022-11-16T17:32:51.306Z,14.82
2022-11-16T17:35:24.580Z,16.70
2022-11-16T17:37:59.416Z,15.05
2022-11-16T17:40:35.380Z,15.95
2022-11-16T17:43:08.936Z,16.20
2022-11-16T17:45:41.859Z,16.05
2022-11-16T17:48:15.176Z,14.50
2022-11-16T17:50:51.940Z,14.85
2022-11-16T17:53:31.220Z,15.75
2022-11-16T17:56:09.658Z,14.98
2022-11-16T17:58:43.539Z,15.10
2022-11-16T18:01:18.113Z,14.80
2022-11-16T18:03:51.898Z,12.25
2022-11-16T18:06:27.336Z,15.05
2022-11-16T18:09:01.105Z,13.07
2022-11-16T18:11:37.458Z,12.32
2022-11-16T18:14:11.298Z,13.57
2022-11-16T18:16:44.978Z,13.82
2022-11-16T18:19:20.467Z,12.90
2022-11-16T18:21:54.138Z,12.65
2022-11-16T18:24:28.139Z,12.80
2022-11-16T18:27:04.508Z,13.48
2022-11-16T18:29:38.061Z,12.90
2022-11-16T18:32:13.346Z,12.55
2022-11-16T18:34:47.097Z,13.18
2022-11-16T18:37:20.780Z,13.32
2022-11-16T18:39:53.482Z,12.38
2022-11-16T18:42:27.846Z,12.80
2022-11-16T18:45:00.048Z,12.25
2022-11-16T18:47:31.789Z,12.05
2022-11-16T18:50:03.806Z,12.52
2022-11-16T18:52:35.435Z,11.60
2022-11-16T18:55:09.485Z,11.68
2022-11-16T18:57:43.490Z,12.18
2022-11-16T19:00:19.422Z,11.15
2022-11-16T19:02:51.343Z,10.85
2022-11-16T19:05:23.275Z,9.50
2022-11-16T19:07:55.009Z,11.73
2022-11-16T19:10:26.596Z,11.07
2022-11-16T19:13:00.548Z,11.43
2022-11-16T19:15:32.339Z,9.60
2022-11-16T19:18:21.400Z,11.40
2022-11-16T19:20:53.546Z,10.70
2022-11-16T19:23:24.861Z,10.73
2022-11-16T19:26:05.096Z,10.20
2022-11-16T19:28:46.140Z,10.27
2022-11-16T19:31:26.492Z,10.40
2022-11-16T19:34:04.797Z,10.80
2022-11-16T19:36:39.275Z,9.52
2022-11-16T19:39:10.824Z,10.63
2022-11-16T19:41:43.633Z,10.65
2022-11-16T19:44:18.972Z,9.68
2022-11-16T19:46:53.732Z,9.90
2022-11-16T19:49:26.715Z,9.20
2022-11-16T19:51:59.951Z,9.85
2022-11-16T19:54:32.813Z,10.10
2022-11-16T19:57:05.834Z,9.90
2022-11-16T19:59:41.374Z,9.32
2022-11-16T20:02:14.394Z,9.57
2022-11-16T20:04:47.270Z,9.95
2022-11-16T20:07:20.435Z,9.57
2022-11-16T20:09:53.640Z,9.68
2022-11-16T20:12:26.953Z,9.80
2022-11-16T20:15:03.322Z,9.95
2022-11-16T20:17:50.204Z,9.50
2022-11-16T20:20:29.521Z,9.32
2022-11-16T20:23:02.575Z,10.43
2022-11-16T20:25:35.129Z,9.18
2022-11-16T20:28:08.402Z,10.27
2022-11-16T20:30:49.828Z,10.23
2022-11-16T20:33:24.141Z,8.95
2022-11-16T20:36:02.900Z,9.73
2022-11-16T20:38:36.909Z,9.43
2022-11-16T20:41:14.683Z,10.27
2022-11-16T20:43:49.080Z,10.10
2022-11-16T20:46:26.522Z,10.73
2022-11-16T20:49:02.202Z,10.68
2022-11-16T20:51:35.121Z,10.32
2022-11-16T20:54:08.521Z,9.80
2022-11-16T20:56:41.373Z,10.10
2022-11-16T20:59:14.481Z,11.10
2022-11-16T21:01:51.096Z,10.52
2022-11-16T21:04:24.042Z,11.13
2022-11-16T21:06:56.899Z,10.68
2022-11-16T21:09:50.359Z,10.70
2022-11-16T21:12:38.813Z,11.20
2022-11-16T21:15:16.023Z,10.10
2022-11-16T21:17:51.941Z,10.55
2022-11-16T21:20:28.243Z,10.32
2022-11-16T21:23:01.824Z,9.07
2022-11-16T21:25:37.661Z,10.57
2022-11-16T21:28:10.883Z,11.00
2022-11-16T21:30:44.421Z,10.90
2022-11-16T21:33:20.201Z,10.40
2022-11-16T21:35:54.922Z,12.18
2022-11-16T21:38:29.088Z,10.45
2022-11-16T21:41:02.640Z,11.18
2022-11-16T21:43:37.005Z,11.02
2022-11-16T21:46:12.080Z,11.18
2022-11-16T21:48:48.501Z,10.13
2022-11-16T21:51:25.303Z,10.68
2022-11-16T21:53:58.863Z,11.10
2022-11-16T21:56:32.082Z,10.88
2022-11-16T21:59:04.702Z,10.90
2022-11-16T22:01:57.901Z,9.77
2022-11-16T22:04:46.022Z,9.35
2022-11-16T22:07:31.457Z,10.40
2022-11-16T22:10:04.845Z,11.18
2022-11-16T22:12:38.984Z,10.25
2022-11-16T22:15:12.903Z,10.23
2022-11-16T22:17:47.942Z,10.27
2022-11-16T22:20:23.741Z,8.88
2022-11-16T22:22:56.781Z,10.13
2022-11-16T22:25:29.650Z,10.30
2022-11-16T22:28:20.216Z,9.27
2022-11-16T22:30:53.742Z,9.15
2022-11-16T22:33:27.126Z,10.07
2022-11-16T22:36:02.565Z,9.90
2022-11-16T22:38:37.282Z,9.30
2022-11-16T22:41:10.089Z,9.98
2022-11-16T22:43:43.364Z,10.20
2022-11-16T22:46:16.004Z,10.20
2022-11-16T22:48:49.182Z,9.90
2022-11-16T22:51:26.921Z,9.73
2022-11-16T22:54:01.524Z,11.13
2022-11-16T22:56:35.481Z,11.15
2022-11-16T22:59:10.181Z,9.85
2022-11-16T23:01:43.382Z,10.90
2022-11-16T23:04:16.524Z,10.45
2022-11-16T23:06:52.319Z,10.63
2022-11-16T23:09:25.284Z,10.75
2022-11-16T23:12:10.545Z,10.48
2022-11-16T23:14:55.765Z,10.43
2022-11-16T23:17:28.570Z,10.25
2022-11-16T23:20:17.596Z,10.75
2022-11-16T23:23:05.597Z,11.63
2022-11-16T23:25:50.824Z,11.38
2022-11-16T23:28:24.314Z,13.23
2022-11-16T23:30:57.464Z,11.77
2022-11-16T23:33:42.345Z,11.82
2022-11-16T23:36:16.391Z,11.45
2022-11-16T23:38:52.005Z,11.52
2022-11-16T23:41:37.024Z,11.52
2022-11-16T23:44:10.124Z,11.50
2022-11-16T23:46:42.541Z,11.73
2022-11-16T23:49:14.204Z,12.10
2022-11-16T23:51:46.234Z,11.25
2022-11-16T23:54:20.600Z,11.52
2022-11-16T23:56:52.488Z,10.77
2022-11-16T23:59:24.121Z,10.85
